Augsburg, Illinois
Current Conditions -  °F | °C
As of 5:15 AM on Monday 20 Oct 2014 (Local Time) from KSLO Reporting Station
Broken Clouds Broken Clouds  
Wind Chill: 12°   Ceiling: 11000
Heat Index: 12°   Visibility: 10mi
Dew Point: 10°   Wind: 7mph
Humidity: 86%   Direction: 210°SSW
Pressure: 29.98"   Gusts: NA
Location:  38.8463°N, 89.0894°W
Report Text: KSLO 201015Z AUTO 21006KT 10SM SCT095 BKN110 12/10 A2998 RMK AO2 T01190096
Loading
Personal Weather Stations






























Interactive Weather Map
Tropical Storm Tracking
New forecast layout! Learn more

10-Day Weather Forecast

Advertisements
Track Severe Weather on mobile